Villa Hucar, Puerto Rico
Current Conditions -  °F | °C
As of 8:56 PM on Monday 24 Nov 2014 (Local Time) from TJSJ Reporting Station
Scattered Clouds Scattered Clouds  
Wind Chill: 79°   Ceiling: Unl
Heat Index: 83°   Visibility: 10mi
Dew Point: 75°   Wind: 10mph
Humidity: 88%   Direction: 90°E
Pressure: 30.06"   Gusts: NA
Location:  18.3754°N, 66.0577°W
Report Text: TJSJ 250056Z 09009KT 10SM SCT027 SCT036 26/24 A3006 RMK AO2 RAB45E49 SLP179 P0001 T02610239
Loading
Personal Weather Stations






























Interactive Weather Map New forecast layout! Learn more

10-Day Weather Forecast

Advertisements
Track Severe Weather on mobile